KADM/ADM METAR and TAF weather

Enter ICAO airport designator
Station Type Date Time Source
KADM METAR 2022/01/26 07:55 UTC NOAA

KADM 260755Z AUTO 03007G13KT 10SM OVC036 M02/M14 A3041 RMK AO2


Station Type Date Time Source
KADM Decoded METAR 2022/01/26 07:55 UTC NOAA

Ardmore, Ardmore Municipal Airport, OK, United States (KADM) 34-18-11N 097-01-10W
Jan 26, 2022 - 02:55 AM EST / 2022.01.26 0755 UTC
Wind: from the NNE (030 degrees) at 8 MPH (7 KT) gusting to 15 MPH (13 KT):0
Visibility: 10 mile(s):0
Sky conditions: overcast
Temperature: 28 F (-2 C)
Windchill: 19 F (-7 C):1
Dew Point: 6 F (-14 C)
Relative Humidity: 39%
Pressure (altimeter): 30.41 in. Hg (1029 hPa)
ob: KADM 260755Z AUTO 03007G13KT 10SM OVC036 M02/M14 A3041 RMK AO2
cycle: 8

Station Type Date Time Source
KADM TAF UTC NOAA

Error!

Example: see airport list